Time;durP1;ratioP1;P1;durP2;ratioP2;P2;SDS_P1;SDS_P2;PMS_P1;PMS_P2;Temp;Humidity;BMP_temperature;BMP_pressure;BME280_temperature;BME280_humidity;BME280_pressure;Samples;Min_cycle;Max_cycle;Signal;HPM_P1;HPM_P2
2024/02/02 00:01:18;;;;;;;0.00;0.00;;;;;;;4.69;75.16;102255.72;15791536;28;20486;-51
2024/02/02 00:08:57;;;;;;;0.00;0.00;;;;;;;4.68;75.25;102253.19;15798851;28;20051;-49
2024/02/02 00:16:36;;;;;;;0.00;0.00;;;;;;;4.79;74.73;102256.56;15798708;28;20036;-54
2024/02/02 00:24:11;;;;;;;0.10;0.10;;;;;;;4.71;75.49;102242.25;15797857;28;20067;-48
2024/02/02 00:31:48;;;;;;;0.10;0.10;;;;;;;4.54;75.55;102241.94;15809444;28;20564;-53
2024/02/02 00:39:25;;;;;;;0.00;0.00;;;;;;;4.67;75.14;102241.72;15763427;28;20052;-48
2024/02/02 00:47:00;;;;;;;0.00;0.00;;;;;;;4.51;75.95;102234.22;15798068;28;20102;-54
2024/02/02 00:55:00;;;;;;;0.00;0.00;;;;;;;4.79;75.39;102245.94;15784480;28;20232;-51
2024/02/02 01:02:40;;;;;;;1.92;1.75;;;;;;;4.94;74.26;102249.06;15780950;28;20047;-51
2024/02/02 01:10:16;;;;;;;0.10;0.10;;;;;;;4.89;74.83;102248.63;15803382;28;20443;-50
2024/02/02 01:17:53;;;;;;;0.08;0.08;;;;;;;4.92;75.25;102260.81;15798605;28;20056;-53
2024/02/02 01:25:29;;;;;;;0.20;0.20;;;;;;;4.70;76.42;102264.53;15801816;28;20071;-49
2024/02/02 01:33:06;;;;;;;0.00;0.00;;;;;;;4.43;77.21;102270.41;15768402;28;20097;-54
2024/02/02 01:40:42;;;;;;;0.00;0.00;;;;;;;4.67;76.36;102256.84;15781336;28;20079;-48
2024/02/02 01:48:17;;;;;;;0.57;0.38;;;;;;;4.48;77.19;102263.75;15798190;28;20496;-48
2024/02/02 01:55:51;;;;;;;0.10;0.10;;;;;;;4.43;77.17;102263.31;15792470;28;20044;-53
2024/02/02 02:03:26;;;;;;;0.00;0.00;;;;;;;4.40;77.37;102247.63;15801271;28;20055;-48
2024/02/02 02:11:00;;;;;;;0.00;0.00;;;;;;;4.54;77.06;102262.38;15778196;28;20130;-50
2024/02/02 02:18:35;;;;;;;0.15;0.15;;;;;;;4.67;76.81;102259.50;15788080;28;20071;-53
2024/02/02 02:26:11;;;;;;;0.00;0.00;;;;;;;4.46;77.09;102239.09;15778460;28;20492;-54
2024/02/02 02:33:45;;;;;;;0.00;0.00;;;;;;;4.54;77.10;102236.63;15780403;28;20166;-52
2024/02/02 02:41:24;;;;;;;0.00;0.00;;;;;;;4.68;76.98;102224.78;15780207;28;20040;-53
2024/02/02 02:48:57;;;;;;;0.20;0.17;;;;;;;4.68;76.83;102208.81;15797544;28;20155;-49
2024/02/02 02:56:32;;;;;;;0.00;0.00;;;;;;;4.57;77.67;102198.31;15792670;28;20044;-51
2024/02/02 03:04:09;;;;;;;0.20;0.20;;;;;;;4.53;77.62;102205.69;15765435;28;20048;-50
2024/02/02 03:12:03;;;;;;;0.05;0.05;;;;;;;4.53;77.62;102199.53;15795238;28;20047;-50
2024/02/02 03:19:38;;;;;;;0.10;0.10;;;;;;;4.41;78.02;102211.25;15790843;28;20083;-50
2024/02/02 03:27:14;;;;;;;0.10;0.10;;;;;;;4.40;77.75;102213.06;15790192;28;20079;-51
2024/02/02 03:34:47;;;;;;;4.05;1.85;;;;;;;4.54;76.98;102218.00;15792681;28;20256;-51
2024/02/02 03:42:23;;;;;;;0.30;0.30;;;;;;;4.72;76.34;102212.06;15778295;28;20118;-53
2024/02/02 03:49:58;;;;;;;0.10;0.10;;;;;;;4.53;76.65;102210.19;15785643;28;20044;-49
2024/02/02 03:57:33;;;;;;;0.03;0.03;;;;;;;4.39;77.45;102215.88;15807344;28;20137;-49
2024/02/02 04:05:08;;;;;;;0.00;0.00;;;;;;;4.37;77.13;102208.00;15809006;28;20068;-47
2024/02/02 04:12:43;;;;;;;5.03;0.60;;;;;;;4.56;76.56;102209.88;15795814;28;20040;-47
2024/02/02 04:20:19;;;;;;;0.00;0.00;;;;;;;4.46;76.98;102212.50;15808662;28;20032;-49
2024/02/02 04:27:55;;;;;;;0.00;0.00;;;;;;;4.58;76.51;102202.63;15783549;28;20047;-49
2024/02/02 04:35:32;;;;;;;0.00;0.00;;;;;;;4.53;76.22;102203.03;15804983;28;20042;-51
2024/02/02 04:43:07;;;;;;;0.35;0.32;;;;;;;4.32;76.92;102183.63;15796932;28;20301;-48
2024/02/02 04:50:42;;;;;;;1.17;1.08;;;;;;;4.58;76.19;102194.66;15783492;28;20044;-50
2024/02/02 04:58:16;;;;;;;0.28;0.28;;;;;;;4.58;76.16;102189.34;15797129;28;20044;-48
2024/02/02 05:05:50;;;;;;;0.55;0.47;;;;;;;4.49;76.57;102174.19;15803075;28;20044;-48
2024/02/02 05:13:25;;;;;;;0.00;0.00;;;;;;;4.38;76.86;102177.78;15783449;28;20071;-47
2024/02/02 05:20:59;;;;;;;0.00;0.00;;;;;;;4.60;75.72;102166.94;15784303;28;20496;-50
2024/02/02 05:28:35;;;;;;;5.88;2.50;;;;;;;4.67;76.07;102153.13;15780359;28;20501;-54
2024/02/02 05:36:09;;;;;;;0.00;0.00;;;;;;;4.44;76.23;102153.34;15782940;28;20072;-48
2024/02/02 05:43:46;;;;;;;0.00;0.00;;;;;;;4.57;76.25;102139.81;15796252;28;20155;-48
2024/02/02 05:51:21;;;;;;;0.00;0.00;;;;;;;4.65;76.15;102139.94;15801564;28;20051;-48
2024/02/02 05:58:59;;;;;;;0.00;0.00;;;;;;;4.50;76.84;102136.00;15781746;28;20044;-48
2024/02/02 06:06:32;;;;;;;0.00;0.00;;;;;;;4.61;76.15;102134.03;15801397;28;20230;-53
2024/02/02 06:14:09;;;;;;;0.10;0.10;;;;;;;4.63;76.03;102138.41;15759262;28;20722;-50
2024/02/02 06:21:43;;;;;;;1.30;0.38;;;;;;;4.61;76.31;102141.19;15783370;28;20055;-53
2024/02/02 06:29:18;;;;;;;0.10;0.10;;;;;;;4.68;75.29;102144.16;15774936;28;20497;-49
2024/02/02 06:36:52;;;;;;;0.00;0.00;;;;;;;4.95;75.22;102148.81;15770938;28;20054;-48
2024/02/02 06:44:27;;;;;;;1.77;0.98;;;;;;;4.71;75.18;102150.03;15799001;28;20051;-50
2024/02/02 06:52:02;;;;;;;0.00;0.00;;;;;;;4.88;74.14;102143.19;15777876;28;20105;-51
2024/02/02 06:59:45;;;;;;;0.00;0.00;;;;;;;4.79;74.14;102144.03;15797480;28;20105;-53
2024/02/02 07:07:21;;;;;;;0.93;0.43;;;;;;;5.07;73.57;102105.09;15755561;28;20230;-51
2024/02/02 07:15:04;;;;;;;0.40;0.40;;;;;;;4.97;73.38;102099.78;15789372;28;20043;-47
2024/02/02 07:22:39;;;;;;;0.70;0.70;;;;;;;4.86;73.78;102074.16;15796505;28;20058;-51
2024/02/02 07:30:43;;;;;;;0.15;0.15;;;;;;;5.08;73.78;102094.34;15799308;28;20052;-48
2024/02/02 07:38:53;;;;;;;;;;;;;;;5.50;72.36;102087.81;15795020;28;20131;-50
2024/02/02 07:46:28;;;;;;;2.08;0.85;;;;;;;4.97;73.53;102075.84;15795910;28;19923;-47
2024/02/02 07:54:02;;;;;;;0.10;0.10;;;;;;;5.41;72.11;102056.72;15756438;28;20139;-49
2024/02/02 08:01:37;;;;;;;0.22;0.22;;;;;;;5.37;72.71;102069.50;15777022;28;20040;-53
2024/02/02 08:09:11;;;;;;;0.57;0.57;;;;;;;5.35;72.78;102053.66;15776230;28;20118;-51
2024/02/02 08:16:53;;;;;;;0.10;0.10;;;;;;;5.58;71.43;102056.81;15786960;28;20036;-49
2024/02/02 08:24:28;;;;;;;0.10;0.10;;;;;;;5.57;71.13;102046.31;15801818;28;20102;-49
2024/02/02 08:32:06;;;;;;;0.38;0.38;;;;;;;5.64;70.90;102039.41;15783062;28;20040;-53
2024/02/02 08:39:40;;;;;;;0.00;0.00;;;;;;;5.75;69.46;102009.09;15794531;28;20058;-50
2024/02/02 08:47:17;;;;;;;0.00;0.00;;;;;;;6.02;68.84;102032.28;15781854;28;20050;-51
2024/02/02 08:54:51;;;;;;;0.00;0.00;;;;;;;6.21;68.08;102032.16;15803305;28;20068;-48
2024/02/02 09:03:04;;;;;;;0.20;0.20;;;;;;;6.25;67.89;102017.53;15773309;28;20067;-49
2024/02/02 09:11:02;;;;;;;;;;;;;;;6.27;67.76;102004.88;15806182;28;20044;-49
2024/02/02 09:18:39;;;;;;;0.38;0.38;;;;;;;6.54;67.51;101996.00;15784503;28;19960;-53
2024/02/02 09:26:15;;;;;;;0.70;0.38;;;;;;;6.46;66.82;102000.41;15779432;28;20569;-49
2024/02/02 09:33:51;;;;;;;0.00;0.00;;;;;;;6.41;68.19;102008.03;15761268;28;20051;-52
2024/02/02 09:41:53;;;;;;;0.00;0.00;;;;;;;6.26;68.37;101991.72;15782690;28;20669;-51
2024/02/02 09:49:40;;;;;;;0.00;0.00;;;;;;;6.22;69.11;101961.00;15777130;28;20148;-49
2024/02/02 09:57:20;;;;;;;0.10;0.10;;;;;;;6.13;69.67;101960.09;15777323;28;20059;-54
2024/02/02 10:05:07;;;;;;;0.20;0.20;;;;;;;6.25;68.99;101960.69;15794089;28;20101;-49
2024/02/02 10:12:54;;;;;;;0.20;0.20;;;;;;;6.84;66.99;101952.03;15797196;28;20074;-48
2024/02/02 10:20:37;;;;;;;0.30;0.30;;;;;;;6.87;66.95;101967.75;15801432;28;20135;-47
2024/02/02 10:28:29;;;;;;;0.32;0.32;;;;;;;6.63;67.74;101925.72;15788113;28;20051;-48
2024/02/02 10:36:19;;;;;;;0.00;0.00;;;;;;;7.27;65.43;101912.06;15803181;28;20048;-51
2024/02/02 10:44:03;;;;;;;0.00;0.00;;;;;;;6.89;65.93;101875.00;15803338;28;20056;-49
2024/02/02 10:51:44;;;;;;;1.15;0.45;;;;;;;7.35;65.70;101893.41;15801177;28;20511;-52
2024/02/02 10:59:28;;;;;;;0.00;0.00;;;;;;;7.29;64.90;101886.06;15798013;28;20048;-48
2024/02/02 11:07:07;;;;;;;;;;;;;;;6.98;66.08;101883.06;15784619;28;20047;-49
2024/02/02 11:14:48;;;;;;;0.00;0.00;;;;;;;7.02;64.75;101863.91;15771591;28;20029;-48
2024/02/02 11:22:37;;;;;;;0.00;0.00;;;;;;;7.15;64.99;101850.13;15784218;28;20439;-48
2024/02/02 11:30:33;;;;;;;0.10;0.10;;;;;;;7.03;65.94;101836.19;15802179;28;20101;-49
2024/02/02 11:38:15;;;;;;;0.00;0.00;;;;;;;7.05;65.41;101820.88;15785119;28;20093;-49
2024/02/02 11:45:51;;;;;;;16.07;1.30;;;;;;;7.43;64.46;101791.13;15801545;28;20052;-49
2024/02/02 11:53:34;;;;;;;1.15;1.05;;;;;;;7.36;64.29;101783.75;15779958;28;20048;-53
2024/02/02 12:01:28;;;;;;;0.00;0.00;;;;;;;7.46;64.06;101759.56;15790644;28;20070;-49
2024/02/02 12:09:14;;;;;;;0.00;0.00;;;;;;;7.48;64.31;101756.72;15789023;28;20098;-49
2024/02/02 12:16:48;;;;;;;;;;;;;;;7.44;64.75;101737.53;15803453;28;20059;-55
2024/02/02 12:24:23;;;;;;;0.00;0.00;;;;;;;7.22;64.26;101736.31;15797782;28;19960;-50
2024/02/02 12:31:57;;;;;;;0.00;0.00;;;;;;;6.96;64.12;101730.25;15811214;28;20105;-49
2024/02/02 12:39:37;;;;;;;1.08;0.25;;;;;;;6.84;64.59;101719.03;15803154;28;20106;-53
2024/02/02 12:47:10;;;;;;;0.00;0.00;;;;;;;6.89;63.51;101698.03;15791527;28;20475;-52
2024/02/02 12:54:46;;;;;;;0.13;0.13;;;;;;;7.27;62.57;101666.38;15812878;28;20135;-48
2024/02/02 13:02:23;;;;;;;0.90;0.45;;;;;;;7.23;63.18;101668.56;15823974;28;20230;-47
2024/02/02 13:09:57;;;;;;;0.00;0.00;;;;;;;7.13;63.41;101644.72;15804856;28;20102;-48
2024/02/02 13:17:32;;;;;;;0.00;0.00;;;;;;;7.11;63.38;101645.84;15808739;28;20040;-51
2024/02/02 13:25:10;;;;;;;0.00;0.00;;;;;;;7.22;63.30;101653.53;15811492;22;20295;-47
2024/02/02 13:32:45;;;;;;;0.55;0.40;;;;;;;7.10;63.60;101621.00;15744382;28;20396;-47
2024/02/02 13:40:27;;;;;;;0.00;0.00;;;;;;;7.02;64.28;101615.66;15805221;28;20127;-50
2024/02/02 13:48:02;;;;;;;0.00;0.00;;;;;;;7.23;63.31;101604.50;15805224;28;20039;-48
2024/02/02 13:55:39;;;;;;;1.10;1.10;;;;;;;7.45;62.87;101584.25;15790408;28;20044;-51
2024/02/02 14:03:20;;;;;;;0.00;0.00;;;;;;;7.21;63.67;101603.81;15828741;28;20071;-50
2024/02/02 14:11:00;;;;;;;0.73;0.50;;;;;;;7.45;62.80;101584.25;15859535;28;20048;-48
2024/02/02 14:18:33;;;;;;;0.00;0.00;;;;;;;7.70;62.34;101562.88;15867548;28;20048;-48
2024/02/02 14:26:11;;;;;;;0.28;0.28;;;;;;;7.13;64.34;101545.06;15861676;28;20040;-50
2024/02/02 14:33:45;;;;;;;0.20;0.08;;;;;;;7.46;63.79;101553.91;15827781;28;20123;-50
2024/02/02 14:41:25;;;;;;;0.20;0.20;;;;;;;7.33;64.59;101524.19;15801982;28;20167;-50
2024/02/02 14:49:10;;;;;;;0.38;0.38;;;;;;;7.50;64.36;101541.00;15784364;28;20381;-49
2024/02/02 14:56:46;;;;;;;1.48;1.20;;;;;;;7.63;64.36;101523.44;15830169;28;20475;-48
2024/02/02 15:04:19;;;;;;;1.20;0.68;;;;;;;7.48;65.03;101517.16;15823303;28;20048;-49
2024/02/02 15:11:57;;;;;;;0.00;0.00;;;;;;;7.71;64.88;101495.88;15846228;28;20535;-51
2024/02/02 15:19:31;;;;;;;0.10;0.10;;;;;;;7.52;64.51;101491.75;15845979;28;20044;-49
2024/02/02 15:27:06;;;;;;;0.08;0.08;;;;;;;7.57;64.83;101493.91;15855326;28;20581;-51
2024/02/02 15:34:40;;;;;;;0.35;0.17;;;;;;;7.33;65.78;101479.63;15843713;28;20097;-51
2024/02/02 15:42:15;;;;;;;1.10;0.45;;;;;;;7.54;64.88;101475.56;15835564;28;20051;-50
2024/02/02 15:49:49;;;;;;;0.05;0.05;;;;;;;7.62;64.61;101480.88;15799038;28;20492;-52
2024/02/02 15:57:25;;;;;;;0.30;0.30;;;;;;;7.75;64.42;101485.69;15799339;28;20515;-52
2024/02/02 16:05:03;;;;;;;0.77;0.55;;;;;;;7.52;64.21;101457.03;15822279;28;20158;-52
2024/02/02 16:12:39;;;;;;;0.00;0.00;;;;;;;7.44;64.97;101483.78;15860008;28;20123;-52
2024/02/02 16:20:13;;;;;;;0.13;0.13;;;;;;;7.44;64.62;101486.44;15814088;28;20079;-52
2024/02/02 16:27:48;;;;;;;2.35;1.83;;;;;;;7.30;65.80;101485.31;15797675;28;20046;-50
2024/02/02 16:35:22;;;;;;;0.20;0.20;;;;;;;7.42;65.28;101493.81;15823224;28;20036;-49
2024/02/02 16:42:58;;;;;;;0.00;0.00;;;;;;;7.23;67.05;101483.47;15845202;28;20035;-52
2024/02/02 16:50:32;;;;;;;0.00;0.00;;;;;;;7.29;68.06;101486.31;15833151;28;20036;-50
2024/02/02 16:58:08;;;;;;;0.10;0.10;;;;;;;7.67;68.19;101468.66;15821943;28;20047;-50
2024/02/02 17:05:41;;;;;;;0.08;0.08;;;;;;;7.49;70.26;101473.41;15865806;28;20046;-48
2024/02/02 17:13:19;;;;;;;0.00;0.00;;;;;;;7.71;70.65;101446.94;15856369;28;20040;-53
2024/02/02 17:20:56;;;;;;;0.45;0.20;;;;;;;7.51;73.09;101442.03;15832408;28;20500;-49
2024/02/02 17:28:30;;;;;;;0.47;0.28;;;;;;;7.70;73.06;101442.63;15814791;28;20037;-49
2024/02/02 17:36:08;;;;;;;1.42;0.95;;;;;;;7.56;73.60;101452.19;15793621;28;20044;-49
2024/02/02 17:43:45;;;;;;;0.47;0.35;;;;;;;7.84;73.22;101442.72;15805084;28;20500;-50
2024/02/02 17:51:19;;;;;;;4.00;0.80;;;;;;;7.81;73.63;101434.19;15836787;28;20038;-52
2024/02/02 17:58:55;;;;;;;0.57;0.57;;;;;;;7.55;75.36;101413.09;15819222;28;20473;-50
2024/02/02 18:06:29;;;;;;;2.45;0.82;;;;;;;7.76;74.53;101420.53;15803915;28;20354;-49
2024/02/02 18:14:04;;;;;;;0.65;0.65;;;;;;;7.81;74.71;101412.81;15805791;28;20488;-48
2024/02/02 18:21:38;;;;;;;0.47;0.47;;;;;;;7.66;75.33;101400.19;15814347;28;20511;-48
2024/02/02 18:29:13;;;;;;;0.77;0.75;;;;;;;7.65;75.68;101409.22;15803933;28;20505;-51
2024/02/02 18:36:47;;;;;;;0.20;0.20;;;;;;;7.67;75.67;101417.06;15801049;28;20040;-51
2024/02/02 18:44:25;;;;;;;0.55;0.55;;;;;;;7.40;75.81;101363.09;15814980;28;20046;-47
2024/02/02 18:51:58;;;;;;;3.15;0.88;;;;;;;7.50;77.25;101400.25;15801886;28;20139;-49
2024/02/02 18:59:43;;;;;;;;;;;;;;;7.67;77.22;101395.69;15804559;28;20451;-48
2024/02/02 19:07:17;;;;;;;0.28;0.28;;;;;;;7.58;77.78;101372.69;15819832;28;19987;-50
2024/02/02 19:14:52;;;;;;;0.10;0.10;;;;;;;7.56;78.11;101364.88;15803633;28;20070;-47
2024/02/02 19:22:26;;;;;;;3.70;0.52;;;;;;;7.61;78.04;101367.84;15798451;28;20047;-53
2024/02/02 19:30:01;;;;;;;0.00;0.00;;;;;;;7.60;78.17;101387.56;15798462;28;20408;-50
2024/02/02 19:37:35;;;;;;;1.25;0.98;;;;;;;7.68;78.60;101390.16;15797137;28;20037;-49
2024/02/02 19:45:10;;;;;;;0.22;0.13;;;;;;;7.52;79.95;101406.28;15796563;28;20093;-44
2024/02/02 19:52:44;;;;;;;1.05;0.80;;;;;;;7.38;80.83;101391.00;15814437;28;20092;-46
2024/02/02 20:00:22;;;;;;;0.60;0.60;;;;;;;7.46;80.89;101366.91;15861057;28;20097;-45
2024/02/02 20:07:56;;;;;;;0.20;0.20;;;;;;;7.46;80.66;101356.25;15855752;28;20044;-47
2024/02/02 20:15:32;;;;;;;0.50;0.50;;;;;;;7.54;80.00;101353.50;15861294;28;20032;-44
2024/02/02 20:23:06;;;;;;;0.65;0.45;;;;;;;7.65;79.04;101354.97;15826510;28;20334;-52
2024/02/02 20:30:41;;;;;;;0.00;0.00;;;;;;;7.74;78.91;101367.28;15755444;28;20079;-49
2024/02/02 20:38:15;;;;;;;0.28;0.28;;;;;;;7.78;78.48;101371.22;15755839;28;20037;-47
2024/02/02 20:45:51;;;;;;;0.00;0.00;;;;;;;7.84;78.09;101375.06;15746000;28;20047;-46
2024/02/02 20:53:25;;;;;;;0.00;0.00;;;;;;;7.81;78.54;101364.72;15726521;28;20041;-49
2024/02/02 21:01:00;;;;;;;0.08;0.08;;;;;;;7.94;77.77;101364.97;15743994;28;20084;-47
2024/02/02 21:08:34;;;;;;;0.30;0.17;;;;;;;8.02;77.31;101353.38;15770641;28;20448;-46
2024/02/02 21:16:09;;;;;;;0.40;0.40;;;;;;;7.99;77.24;101346.53;15788518;28;20493;-50
2024/02/02 21:23:45;;;;;;;0.20;0.20;;;;;;;8.05;77.04;101353.03;15789156;28;20028;-52
2024/02/02 21:31:20;;;;;;;0.15;0.15;;;;;;;8.15;76.80;101357.09;15808740;28;20076;-46
2024/02/02 21:38:57;;;;;;;0.25;0.25;;;;;;;8.07;77.46;101351.84;15804437;28;20047;-47
2024/02/02 21:46:32;;;;;;;0.10;0.03;;;;;;;8.24;77.05;101370.41;15805051;28;20058;-51
2024/02/02 21:54:07;;;;;;;0.35;0.08;;;;;;;8.32;77.64;101376.53;15803844;28;20381;-46
2024/02/02 22:01:42;;;;;;;0.00;0.00;;;;;;;8.13;78.89;101390.41;15785425;28;20143;-45
2024/02/02 22:09:20;;;;;;;0.00;0.00;;;;;;;8.14;78.88;101376.00;15797036;28;20101;-48
2024/02/02 22:16:56;;;;;;;0.63;0.63;;;;;;;8.05;79.86;101363.72;15802336;28;20044;-45
2024/02/02 22:24:38;;;;;;;0.77;0.77;;;;;;;7.95;80.97;101358.59;15777726;28;20758;-50
2024/02/02 22:32:18;;;;;;;0.40;0.40;;;;;;;8.04;81.63;101370.06;15744432;28;20048;-49
2024/02/02 22:39:51;;;;;;;0.00;0.00;;;;;;;8.14;81.44;101371.50;15737475;28;20490;-45
2024/02/02 22:47:26;;;;;;;0.00;0.00;;;;;;;7.94;82.35;101351.59;15736344;28;20044;-44
2024/02/02 22:55:01;;;;;;;1.25;0.77;;;;;;;8.16;81.50;101347.28;15736013;28;20043;-49
2024/02/02 23:02:36;;;;;;;0.88;0.80;;;;;;;8.01;82.23;101343.69;15736874;28;20610;-51
2024/02/02 23:10:11;;;;;;;0.00;0.00;;;;;;;8.19;81.23;101344.22;15734235;28;20418;-45
2024/02/02 23:17:47;;;;;;;0.00;0.00;;;;;;;8.27;81.20;101336.13;15736091;28;20044;-48
2024/02/02 23:25:24;;;;;;;0.45;0.22;;;;;;;8.15;81.53;101330.38;15739143;28;20028;-49
2024/02/02 23:33:01;;;;;;;0.47;0.47;;;;;;;8.10;82.17;101340.78;15717676;28;20525;-45
2024/02/02 23:40:35;;;;;;;0.00;0.00;;;;;;;8.22;81.92;101351.06;15718362;28;20040;-44
2024/02/02 23:48:15;;;;;;;0.00;0.00;;;;;;;8.20;82.69;101337.84;15736496;28;20032;-44
2024/02/02 23:55:50;;;;;;;0.35;0.30;;;;;;;8.06;83.18;101323.41;15758037;28;20558;-48
